sensor_id;sensor_type;location;lat;lon;timestamp;P1;durP1;ratioP1;P2;durP2;ratioP2
45534;SDS011;35892;48.798;9.698;2022-08-19T00:02:15;8.90;;;8.10;;
45534;SDS011;35892;48.798;9.698;2022-08-19T00:04:41;9.52;;;8.52;;
45534;SDS011;35892;48.798;9.698;2022-08-19T00:07:08;10.27;;;9.23;;
45534;SDS011;35892;48.798;9.698;2022-08-19T00:09:35;11.60;;;9.88;;
45534;SDS011;35892;48.798;9.698;2022-08-19T00:12:02;11.23;;;10.00;;
45534;SDS011;35892;48.798;9.698;2022-08-19T00:14:32;11.05;;;10.15;;
45534;SDS011;35892;48.798;9.698;2022-08-19T00:16:59;10.65;;;9.63;;
45534;SDS011;35892;48.798;9.698;2022-08-19T00:19:27;9.77;;;8.85;;
45534;SDS011;35892;48.798;9.698;2022-08-19T00:21:54;10.60;;;9.60;;
45534;SDS011;35892;48.798;9.698;2022-08-19T00:24:22;11.93;;;10.93;;
45534;SDS011;35892;48.798;9.698;2022-08-19T00:26:49;10.93;;;10.00;;
45534;SDS011;35892;48.798;9.698;2022-08-19T00:29:17;11.35;;;10.23;;
45534;SDS011;35892;48.798;9.698;2022-08-19T00:31:47;12.18;;;10.98;;
45534;SDS011;35892;48.798;9.698;2022-08-19T00:34:19;10.95;;;10.02;;
45534;SDS011;35892;48.798;9.698;2022-08-19T00:36:48;11.43;;;10.52;;
45534;SDS011;35892;48.798;9.698;2022-08-19T00:39:17;10.73;;;9.73;;
45534;SDS011;35892;48.798;9.698;2022-08-19T00:41:44;12.15;;;10.95;;
45534;SDS011;35892;48.798;9.698;2022-08-19T00:44:18;11.93;;;10.82;;
45534;SDS011;35892;48.798;9.698;2022-08-19T00:46:52;11.95;;;10.95;;
45534;SDS011;35892;48.798;9.698;2022-08-19T00:51:53;12.90;;;11.65;;
45534;SDS011;35892;48.798;9.698;2022-08-19T00:54:26;12.95;;;11.65;;
45534;SDS011;35892;48.798;9.698;2022-08-19T00:56:56;13.05;;;11.85;;
45534;SDS011;35892;48.798;9.698;2022-08-19T00:59:26;12.05;;;10.77;;
45534;SDS011;35892;48.798;9.698;2022-08-19T01:02:14;12.80;;;11.60;;
45534;SDS011;35892;48.798;9.698;2022-08-19T01:04:42;11.73;;;10.70;;
45534;SDS011;35892;48.798;9.698;2022-08-19T01:07:09;12.35;;;11.30;;
45534;SDS011;35892;48.798;9.698;2022-08-19T01:09:42;11.70;;;10.70;;
45534;SDS011;35892;48.798;9.698;2022-08-19T01:12:09;13.27;;;11.85;;
45534;SDS011;35892;48.798;9.698;2022-08-19T01:14:37;13.77;;;12.18;;
45534;SDS011;35892;48.798;9.698;2022-08-19T01:17:07;12.32;;;11.23;;
45534;SDS011;35892;48.798;9.698;2022-08-19T01:19:38;13.00;;;11.75;;
45534;SDS011;35892;48.798;9.698;2022-08-19T01:24:58;12.77;;;11.57;;
45534;SDS011;35892;48.798;9.698;2022-08-19T01:27:25;11.63;;;10.60;;
45534;SDS011;35892;48.798;9.698;2022-08-19T01:30:09;12.88;;;11.68;;
45534;SDS011;35892;48.798;9.698;2022-08-19T01:32:46;13.88;;;12.65;;
45534;SDS011;35892;48.798;9.698;2022-08-19T01:35:15;14.00;;;12.63;;
45534;SDS011;35892;48.798;9.698;2022-08-19T01:37:47;13.30;;;12.00;;
45534;SDS011;35892;48.798;9.698;2022-08-19T01:40:19;13.82;;;12.38;;
45534;SDS011;35892;48.798;9.698;2022-08-19T01:42:51;13.25;;;11.90;;
45534;SDS011;35892;48.798;9.698;2022-08-19T01:45:20;13.98;;;12.60;;
45534;SDS011;35892;48.798;9.698;2022-08-19T01:47:51;13.18;;;11.98;;
45534;SDS011;35892;48.798;9.698;2022-08-19T01:50:28;14.20;;;12.90;;
45534;SDS011;35892;48.798;9.698;2022-08-19T01:52:58;13.63;;;12.40;;
45534;SDS011;35892;48.798;9.698;2022-08-19T01:55:31;13.73;;;12.52;;
45534;SDS011;35892;48.798;9.698;2022-08-19T01:57:59;13.95;;;12.73;;
45534;SDS011;35892;48.798;9.698;2022-08-19T02:00:31;14.43;;;13.02;;
45534;SDS011;35892;48.798;9.698;2022-08-19T02:02:58;13.75;;;12.55;;
45534;SDS011;35892;48.798;9.698;2022-08-19T02:05:28;14.85;;;13.45;;
45534;SDS011;35892;48.798;9.698;2022-08-19T02:07:57;14.48;;;13.10;;
45534;SDS011;35892;48.798;9.698;2022-08-19T02:10:25;15.23;;;12.93;;
45534;SDS011;35892;48.798;9.698;2022-08-19T02:12:54;13.50;;;12.35;;
45534;SDS011;35892;48.798;9.698;2022-08-19T02:15:21;15.07;;;13.52;;
45534;SDS011;35892;48.798;9.698;2022-08-19T02:17:48;14.50;;;13.20;;
45534;SDS011;35892;48.798;9.698;2022-08-19T02:20:15;15.55;;;14.00;;
45534;SDS011;35892;48.798;9.698;2022-08-19T02:22:42;15.80;;;14.30;;
45534;SDS011;35892;48.798;9.698;2022-08-19T02:25:11;15.48;;;13.98;;
45534;SDS011;35892;48.798;9.698;2022-08-19T02:27:39;14.93;;;13.63;;
45534;SDS011;35892;48.798;9.698;2022-08-19T02:30:07;15.57;;;14.07;;
45534;SDS011;35892;48.798;9.698;2022-08-19T02:32:39;14.98;;;13.68;;
45534;SDS011;35892;48.798;9.698;2022-08-19T02:35:10;14.40;;;13.10;;
45534;SDS011;35892;48.798;9.698;2022-08-19T02:37:38;13.57;;;12.30;;
45534;SDS011;35892;48.798;9.698;2022-08-19T02:40:23;14.57;;;13.10;;
45534;SDS011;35892;48.798;9.698;2022-08-19T02:42:51;13.95;;;12.65;;
45534;SDS011;35892;48.798;9.698;2022-08-19T02:45:18;13.32;;;12.02;;
45534;SDS011;35892;48.798;9.698;2022-08-19T02:47:48;13.18;;;12.05;;
45534;SDS011;35892;48.798;9.698;2022-08-19T02:50:14;13.95;;;12.75;;
45534;SDS011;35892;48.798;9.698;2022-08-19T02:52:41;13.73;;;12.43;;
45534;SDS011;35892;48.798;9.698;2022-08-19T02:55:08;13.73;;;12.52;;
45534;SDS011;35892;48.798;9.698;2022-08-19T02:57:35;11.27;;;10.30;;
45534;SDS011;35892;48.798;9.698;2022-08-19T03:00:07;14.52;;;13.23;;
45534;SDS011;35892;48.798;9.698;2022-08-19T03:02:38;16.55;;;15.13;;
45534;SDS011;35892;48.798;9.698;2022-08-19T03:05:07;14.77;;;13.38;;
45534;SDS011;35892;48.798;9.698;2022-08-19T03:07:36;14.27;;;12.82;;
45534;SDS011;35892;48.798;9.698;2022-08-19T03:10:05;15.43;;;14.07;;
45534;SDS011;35892;48.798;9.698;2022-08-19T03:12:35;15.38;;;14.07;;
45534;SDS011;35892;48.798;9.698;2022-08-19T03:15:03;14.05;;;12.75;;
45534;SDS011;35892;48.798;9.698;2022-08-19T03:17:32;14.48;;;13.18;;
45534;SDS011;35892;48.798;9.698;2022-08-19T03:19:59;13.55;;;12.45;;
45534;SDS011;35892;48.798;9.698;2022-08-19T03:22:26;14.48;;;13.18;;
45534;SDS011;35892;48.798;9.698;2022-08-19T03:24:53;15.32;;;13.98;;
45534;SDS011;35892;48.798;9.698;2022-08-19T03:27:22;13.85;;;12.57;;
45534;SDS011;35892;48.798;9.698;2022-08-19T03:29:55;15.50;;;14.25;;
45534;SDS011;35892;48.798;9.698;2022-08-19T03:32:26;15.00;;;13.65;;
45534;SDS011;35892;48.798;9.698;2022-08-19T03:34:58;14.75;;;13.23;;
45534;SDS011;35892;48.798;9.698;2022-08-19T03:37:25;15.15;;;13.75;;
45534;SDS011;35892;48.798;9.698;2022-08-19T03:39:54;16.15;;;14.75;;
45534;SDS011;35892;48.798;9.698;2022-08-19T03:42:23;14.63;;;13.32;;
45534;SDS011;35892;48.798;9.698;2022-08-19T03:44:58;14.43;;;13.13;;
45534;SDS011;35892;48.798;9.698;2022-08-19T03:47:27;13.93;;;12.60;;
45534;SDS011;35892;48.798;9.698;2022-08-19T03:49:54;16.13;;;14.73;;
45534;SDS011;35892;48.798;9.698;2022-08-19T03:52:21;15.13;;;13.63;;
45534;SDS011;35892;48.798;9.698;2022-08-19T03:54:50;14.27;;;13.05;;
45534;SDS011;35892;48.798;9.698;2022-08-19T03:57:17;13.77;;;12.48;;
45534;SDS011;35892;48.798;9.698;2022-08-19T03:59:44;15.25;;;13.85;;
45534;SDS011;35892;48.798;9.698;2022-08-19T04:02:11;13.95;;;12.80;;
45534;SDS011;35892;48.798;9.698;2022-08-19T04:04:39;14.10;;;12.90;;
45534;SDS011;35892;48.798;9.698;2022-08-19T04:07:08;14.63;;;13.32;;
45534;SDS011;35892;48.798;9.698;2022-08-19T04:09:36;15.52;;;14.23;;
45534;SDS011;35892;48.798;9.698;2022-08-19T04:12:05;14.80;;;13.43;;
45534;SDS011;35892;48.798;9.698;2022-08-19T04:14:34;14.30;;;13.10;;
45534;SDS011;35892;48.798;9.698;2022-08-19T04:17:02;14.30;;;13.00;;
45534;SDS011;35892;48.798;9.698;2022-08-19T04:19:31;15.05;;;13.77;;
45534;SDS011;35892;48.798;9.698;2022-08-19T04:21:59;13.75;;;12.55;;
45534;SDS011;35892;48.798;9.698;2022-08-19T04:24:26;14.82;;;13.38;;
45534;SDS011;35892;48.798;9.698;2022-08-19T04:26:56;14.07;;;12.88;;
45534;SDS011;35892;48.798;9.698;2022-08-19T04:29:23;14.52;;;13.23;;
45534;SDS011;35892;48.798;9.698;2022-08-19T04:31:52;15.70;;;14.20;;
45534;SDS011;35892;48.798;9.698;2022-08-19T04:34:20;15.65;;;13.98;;
45534;SDS011;35892;48.798;9.698;2022-08-19T04:36:50;15.07;;;13.68;;
45534;SDS011;35892;48.798;9.698;2022-08-19T04:39:19;16.27;;;14.82;;
45534;SDS011;35892;48.798;9.698;2022-08-19T04:42:15;16.48;;;15.07;;
45534;SDS011;35892;48.798;9.698;2022-08-19T04:45:01;15.55;;;14.15;;
45534;SDS011;35892;48.798;9.698;2022-08-19T04:47:38;17.27;;;15.50;;
45534;SDS011;35892;48.798;9.698;2022-08-19T04:50:23;16.58;;;15.07;;
45534;SDS011;35892;48.798;9.698;2022-08-19T04:52:53;16.75;;;15.02;;
45534;SDS011;35892;48.798;9.698;2022-08-19T04:55:23;16.25;;;14.65;;
45534;SDS011;35892;48.798;9.698;2022-08-19T04:57:53;15.43;;;14.02;;
45534;SDS011;35892;48.798;9.698;2022-08-19T05:00:20;16.67;;;14.90;;
45534;SDS011;35892;48.798;9.698;2022-08-19T05:02:53;16.33;;;14.80;;
45534;SDS011;35892;48.798;9.698;2022-08-19T05:05:20;15.32;;;13.73;;
45534;SDS011;35892;48.798;9.698;2022-08-19T05:07:47;13.65;;;12.45;;
45534;SDS011;35892;48.798;9.698;2022-08-19T05:10:14;14.40;;;13.10;;
45534;SDS011;35892;48.798;9.698;2022-08-19T05:12:41;14.15;;;12.95;;
45534;SDS011;35892;48.798;9.698;2022-08-19T05:15:08;13.85;;;12.55;;
45534;SDS011;35892;48.798;9.698;2022-08-19T05:17:35;14.10;;;12.90;;
45534;SDS011;35892;48.798;9.698;2022-08-19T05:20:05;15.60;;;14.13;;
45534;SDS011;35892;48.798;9.698;2022-08-19T05:22:51;19.10;;;17.20;;
45534;SDS011;35892;48.798;9.698;2022-08-19T05:25:21;14.70;;;13.40;;
45534;SDS011;35892;48.798;9.698;2022-08-19T05:27:48;14.52;;;13.23;;
45534;SDS011;35892;48.798;9.698;2022-08-19T05:30:15;15.38;;;14.07;;
45534;SDS011;35892;48.798;9.698;2022-08-19T05:32:46;14.73;;;13.48;;
45534;SDS011;35892;48.798;9.698;2022-08-19T05:35:15;14.50;;;13.05;;
45534;SDS011;35892;48.798;9.698;2022-08-19T05:37:42;15.98;;;14.38;;
45534;SDS011;35892;48.798;9.698;2022-08-19T05:40:19;14.45;;;13.05;;
45534;SDS011;35892;48.798;9.698;2022-08-19T05:42:54;14.00;;;12.60;;
45534;SDS011;35892;48.798;9.698;2022-08-19T05:45:23;15.90;;;14.45;;
45534;SDS011;35892;48.798;9.698;2022-08-19T05:47:52;13.80;;;12.45;;
45534;SDS011;35892;48.798;9.698;2022-08-19T05:50:24;15.27;;;13.77;;
45534;SDS011;35892;48.798;9.698;2022-08-19T05:52:52;14.48;;;13.02;;
45534;SDS011;35892;48.798;9.698;2022-08-19T05:55:21;14.13;;;12.75;;
45534;SDS011;35892;48.798;9.698;2022-08-19T05:57:49;14.27;;;12.90;;
45534;SDS011;35892;48.798;9.698;2022-08-19T06:00:18;13.82;;;12.55;;
45534;SDS011;35892;48.798;9.698;2022-08-19T06:02:49;15.25;;;13.75;;
45534;SDS011;35892;48.798;9.698;2022-08-19T06:05:22;15.25;;;13.85;;
45534;SDS011;35892;48.798;9.698;2022-08-19T06:07:49;14.23;;;12.85;;
45534;SDS011;35892;48.798;9.698;2022-08-19T06:10:16;14.38;;;13.07;;
45534;SDS011;35892;48.798;9.698;2022-08-19T06:12:48;15.27;;;13.85;;
45534;SDS011;35892;48.798;9.698;2022-08-19T06:15:15;13.25;;;12.05;;
45534;SDS011;35892;48.798;9.698;2022-08-19T06:17:42;14.57;;;13.20;;
45534;SDS011;35892;48.798;9.698;2022-08-19T06:20:11;14.35;;;12.98;;
45534;SDS011;35892;48.798;9.698;2022-08-19T06:22:44;17.92;;;16.23;;
45534;SDS011;35892;48.798;9.698;2022-08-19T06:25:12;14.60;;;13.25;;
45534;SDS011;35892;48.798;9.698;2022-08-19T06:27:41;15.55;;;13.95;;
45534;SDS011;35892;48.798;9.698;2022-08-19T06:30:33;16.98;;;15.27;;
45534;SDS011;35892;48.798;9.698;2022-08-19T06:33:00;17.80;;;16.00;;
45534;SDS011;35892;48.798;9.698;2022-08-19T06:35:26;18.35;;;16.58;;
45534;SDS011;35892;48.798;9.698;2022-08-19T06:37:55;18.23;;;16.50;;
45534;SDS011;35892;48.798;9.698;2022-08-19T06:40:22;17.92;;;16.02;;
45534;SDS011;35892;48.798;9.698;2022-08-19T06:42:49;18.23;;;16.35;;
45534;SDS011;35892;48.798;9.698;2022-08-19T06:45:20;21.98;;;18.30;;
45534;SDS011;35892;48.798;9.698;2022-08-19T06:48:00;20.42;;;18.25;;
45534;SDS011;35892;48.798;9.698;2022-08-19T06:50:28;21.80;;;18.42;;
45534;SDS011;35892;48.798;9.698;2022-08-19T06:52:55;23.13;;;20.60;;
45534;SDS011;35892;48.798;9.698;2022-08-19T06:55:23;25.65;;;21.98;;
45534;SDS011;35892;48.798;9.698;2022-08-19T06:57:49;23.10;;;20.65;;
45534;SDS011;35892;48.798;9.698;2022-08-19T07:00:22;22.27;;;19.38;;
45534;SDS011;35892;48.798;9.698;2022-08-19T07:02:48;22.25;;;19.40;;
45534;SDS011;35892;48.798;9.698;2022-08-19T07:05:24;23.30;;;19.77;;
45534;SDS011;35892;48.798;9.698;2022-08-19T07:07:51;24.73;;;21.23;;
45534;SDS011;35892;48.798;9.698;2022-08-19T07:10:26;23.73;;;21.20;;
45534;SDS011;35892;48.798;9.698;2022-08-19T07:12:55;21.50;;;18.73;;
45534;SDS011;35892;48.798;9.698;2022-08-19T07:15:22;25.15;;;21.42;;
45534;SDS011;35892;48.798;9.698;2022-08-19T07:17:49;22.58;;;19.45;;
45534;SDS011;35892;48.798;9.698;2022-08-19T07:20:18;24.30;;;19.83;;
45534;SDS011;35892;48.798;9.698;2022-08-19T07:22:56;22.98;;;20.33;;
45534;SDS011;35892;48.798;9.698;2022-08-19T07:25:23;24.63;;;21.92;;
45534;SDS011;35892;48.798;9.698;2022-08-19T07:27:58;28.65;;;23.20;;
45534;SDS011;35892;48.798;9.698;2022-08-19T07:30:26;22.38;;;19.98;;
45534;SDS011;35892;48.798;9.698;2022-08-19T07:32:54;24.95;;;19.08;;
45534;SDS011;35892;48.798;9.698;2022-08-19T07:35:22;26.67;;;22.05;;
45534;SDS011;35892;48.798;9.698;2022-08-19T07:37:51;24.08;;;20.00;;
45534;SDS011;35892;48.798;9.698;2022-08-19T07:40:19;25.67;;;20.85;;
45534;SDS011;35892;48.798;9.698;2022-08-19T07:42:48;30.30;;;21.63;;
45534;SDS011;35892;48.798;9.698;2022-08-19T07:45:19;22.48;;;20.08;;
45534;SDS011;35892;48.798;9.698;2022-08-19T07:47:46;26.98;;;23.70;;
45534;SDS011;35892;48.798;9.698;2022-08-19T07:50:16;27.60;;;22.50;;
45534;SDS011;35892;48.798;9.698;2022-08-19T07:52:46;22.73;;;18.95;;
45534;SDS011;35892;48.798;9.698;2022-08-19T07:55:17;28.13;;;21.58;;
45534;SDS011;35892;48.798;9.698;2022-08-19T07:58:08;22.98;;;19.20;;
45534;SDS011;35892;48.798;9.698;2022-08-19T08:00:39;28.63;;;24.30;;
45534;SDS011;35892;48.798;9.698;2022-08-19T08:03:12;23.98;;;21.35;;
45534;SDS011;35892;48.798;9.698;2022-08-19T08:05:46;26.02;;;22.65;;
45534;SDS011;35892;48.798;9.698;2022-08-19T08:08:55;23.10;;;20.60;;
45534;SDS011;35892;48.798;9.698;2022-08-19T08:11:45;26.70;;;22.02;;
45534;SDS011;35892;48.798;9.698;2022-08-19T08:14:24;22.45;;;20.05;;
45534;SDS011;35892;48.798;9.698;2022-08-19T08:17:13;22.45;;;19.33;;
45534;SDS011;35892;48.798;9.698;2022-08-19T08:20:09;24.85;;;21.52;;
45534;SDS011;35892;48.798;9.698;2022-08-19T08:22:42;25.92;;;22.35;;
45534;SDS011;35892;48.798;9.698;2022-08-19T08:25:28;23.77;;;21.20;;
45534;SDS011;35892;48.798;9.698;2022-08-19T08:27:59;26.92;;;24.05;;
45534;SDS011;35892;48.798;9.698;2022-08-19T08:30:27;28.65;;;22.95;;
45534;SDS011;35892;48.798;9.698;2022-08-19T08:32:58;31.17;;;25.55;;
45534;SDS011;35892;48.798;9.698;2022-08-19T08:35:28;28.73;;;23.95;;
45534;SDS011;35892;48.798;9.698;2022-08-19T08:37:57;25.52;;;22.48;;
45534;SDS011;35892;48.798;9.698;2022-08-19T08:43:29;29.73;;;24.75;;
45534;SDS011;35892;48.798;9.698;2022-08-19T08:51:52;26.83;;;23.42;;
45534;SDS011;35892;48.798;9.698;2022-08-19T08:54:40;26.90;;;24.00;;
45534;SDS011;35892;48.798;9.698;2022-08-19T08:57:26;25.20;;;22.53;;
45534;SDS011;35892;48.798;9.698;2022-08-19T09:00:08;27.73;;;24.73;;
45534;SDS011;35892;48.798;9.698;2022-08-19T09:02:41;24.55;;;21.88;;
45534;SDS011;35892;48.798;9.698;2022-08-19T09:05:09;30.45;;;24.75;;
45534;SDS011;35892;48.798;9.698;2022-08-19T09:16:09;28.42;;;24.77;;
45534;SDS011;35892;48.798;9.698;2022-08-19T09:21:20;27.55;;;22.17;;
45534;SDS011;35892;48.798;9.698;2022-08-19T09:23:55;26.38;;;21.92;;
45534;SDS011;35892;48.798;9.698;2022-08-19T09:26:25;22.25;;;19.77;;
45534;SDS011;35892;48.798;9.698;2022-08-19T09:29:14;25.63;;;22.85;;
45534;SDS011;35892;48.798;9.698;2022-08-19T09:31:45;23.73;;;21.23;;
45534;SDS011;35892;48.798;9.698;2022-08-19T09:34:12;26.00;;;22.50;;
45534;SDS011;35892;48.798;9.698;2022-08-19T09:36:47;28.02;;;23.80;;
45534;SDS011;35892;48.798;9.698;2022-08-19T09:39:19;25.90;;;22.95;;
45534;SDS011;35892;48.798;9.698;2022-08-19T09:41:46;26.20;;;22.70;;
45534;SDS011;35892;48.798;9.698;2022-08-19T09:44:16;23.30;;;20.70;;
45534;SDS011;35892;48.798;9.698;2022-08-19T09:46:44;24.90;;;22.25;;
45534;SDS011;35892;48.798;9.698;2022-08-19T09:49:14;27.52;;;23.08;;
45534;SDS011;35892;48.798;9.698;2022-08-19T09:51:44;23.85;;;20.75;;
45534;SDS011;35892;48.798;9.698;2022-08-19T09:54:18;24.02;;;21.15;;
45534;SDS011;35892;48.798;9.698;2022-08-19T09:56:52;25.00;;;21.92;;
45534;SDS011;35892;48.798;9.698;2022-08-19T09:59:21;24.55;;;22.00;;
45534;SDS011;35892;48.798;9.698;2022-08-19T10:01:49;23.55;;;20.98;;
45534;SDS011;35892;48.798;9.698;2022-08-19T10:04:17;24.80;;;21.95;;
45534;SDS011;35892;48.798;9.698;2022-08-19T10:06:45;24.20;;;21.65;;
45534;SDS011;35892;48.798;9.698;2022-08-19T10:09:21;24.95;;;22.30;;
45534;SDS011;35892;48.798;9.698;2022-08-19T10:11:59;21.75;;;19.40;;
45534;SDS011;35892;48.798;9.698;2022-08-19T10:14:30;24.75;;;20.15;;
45534;SDS011;35892;48.798;9.698;2022-08-19T10:17:04;23.48;;;21.00;;
45534;SDS011;35892;48.798;9.698;2022-08-19T10:19:47;23.17;;;20.25;;
45534;SDS011;35892;48.798;9.698;2022-08-19T10:22:21;20.67;;;18.00;;
45534;SDS011;35892;48.798;9.698;2022-08-19T10:24:50;23.80;;;19.85;;
45534;SDS011;35892;48.798;9.698;2022-08-19T10:27:18;21.27;;;19.13;;
45534;SDS011;35892;48.798;9.698;2022-08-19T10:29:47;21.27;;;18.92;;
45534;SDS011;35892;48.798;9.698;2022-08-19T10:32:14;23.00;;;19.20;;
45534;SDS011;35892;48.798;9.698;2022-08-19T10:34:41;21.67;;;18.98;;
45534;SDS011;35892;48.798;9.698;2022-08-19T10:37:14;20.95;;;18.85;;
45534;SDS011;35892;48.798;9.698;2022-08-19T10:39:56;19.75;;;17.15;;
45534;SDS011;35892;48.798;9.698;2022-08-19T10:42:23;22.65;;;20.25;;
45534;SDS011;35892;48.798;9.698;2022-08-19T10:44:50;21.35;;;18.95;;
45534;SDS011;35892;48.798;9.698;2022-08-19T10:47:17;22.98;;;19.27;;
45534;SDS011;35892;48.798;9.698;2022-08-19T10:49:51;20.92;;;18.70;;
45534;SDS011;35892;48.798;9.698;2022-08-19T10:52:42;22.75;;;18.17;;
45534;SDS011;35892;48.798;9.698;2022-08-19T10:55:16;20.35;;;18.10;;
45534;SDS011;35892;48.798;9.698;2022-08-19T10:58:03;18.75;;;16.85;;
45534;SDS011;35892;48.798;9.698;2022-08-19T11:00:40;19.60;;;17.42;;
45534;SDS011;35892;48.798;9.698;2022-08-19T11:03:16;20.25;;;17.85;;
45534;SDS011;35892;48.798;9.698;2022-08-19T11:05:44;22.63;;;18.40;;
45534;SDS011;35892;48.798;9.698;2022-08-19T11:08:14;21.05;;;18.83;;
45534;SDS011;35892;48.798;9.698;2022-08-19T11:10:48;18.90;;;15.45;;
45534;SDS011;35892;48.798;9.698;2022-08-19T11:13:15;17.95;;;16.13;;
45534;SDS011;35892;48.798;9.698;2022-08-19T11:15:42;21.88;;;18.52;;
45534;SDS011;35892;48.798;9.698;2022-08-19T11:18:10;18.77;;;16.80;;
45534;SDS011;35892;48.798;9.698;2022-08-19T11:20:38;25.83;;;18.80;;
45534;SDS011;35892;48.798;9.698;2022-08-19T11:23:05;19.70;;;17.13;;
45534;SDS011;35892;48.798;9.698;2022-08-19T11:25:32;20.65;;;17.70;;
45534;SDS011;35892;48.798;9.698;2022-08-19T11:28:00;20.60;;;17.55;;
45534;SDS011;35892;48.798;9.698;2022-08-19T11:30:27;20.05;;;17.92;;
45534;SDS011;35892;48.798;9.698;2022-08-19T11:32:54;18.70;;;16.80;;
45534;SDS011;35892;48.798;9.698;2022-08-19T11:35:20;19.08;;;17.05;;
45534;SDS011;35892;48.798;9.698;2022-08-19T11:37:49;20.98;;;18.75;;
45534;SDS011;35892;48.798;9.698;2022-08-19T11:40:16;22.20;;;18.83;;
45534;SDS011;35892;48.798;9.698;2022-08-19T11:42:43;20.73;;;18.52;;
45534;SDS011;35892;48.798;9.698;2022-08-19T11:45:23;23.00;;;20.25;;
45534;SDS011;35892;48.798;9.698;2022-08-19T11:47:51;20.70;;;18.55;;
45534;SDS011;35892;48.798;9.698;2022-08-19T11:50:19;25.92;;;23.10;;
45534;SDS011;35892;48.798;9.698;2022-08-19T11:52:46;25.33;;;21.85;;
45534;SDS011;35892;48.798;9.698;2022-08-19T11:55:13;25.05;;;21.13;;
45534;SDS011;35892;48.798;9.698;2022-08-19T11:57:41;24.55;;;20.90;;
45534;SDS011;35892;48.798;9.698;2022-08-19T12:00:10;24.42;;;21.35;;
45534;SDS011;35892;48.798;9.698;2022-08-19T12:02:39;26.08;;;21.42;;
45534;SDS011;35892;48.798;9.698;2022-08-19T12:05:06;26.38;;;22.42;;
45534;SDS011;35892;48.798;9.698;2022-08-19T12:07:38;28.92;;;23.80;;
45534;SDS011;35892;48.798;9.698;2022-08-19T12:10:09;28.55;;;24.63;;
45534;SDS011;35892;48.798;9.698;2022-08-19T12:12:36;32.53;;;26.02;;
45534;SDS011;35892;48.798;9.698;2022-08-19T12:15:09;26.67;;;23.83;;
45534;SDS011;35892;48.798;9.698;2022-08-19T12:17:37;26.15;;;23.35;;
45534;SDS011;35892;48.798;9.698;2022-08-19T12:20:06;29.08;;;23.50;;
45534;SDS011;35892;48.798;9.698;2022-08-19T12:22:37;25.63;;;21.80;;
45534;SDS011;35892;48.798;9.698;2022-08-19T12:25:05;30.65;;;27.17;;
45534;SDS011;35892;48.798;9.698;2022-08-19T12:27:35;31.88;;;27.73;;
45534;SDS011;35892;48.798;9.698;2022-08-19T12:30:10;30.50;;;24.67;;
45534;SDS011;35892;48.798;9.698;2022-08-19T12:32:38;30.92;;;25.27;;
45534;SDS011;35892;48.798;9.698;2022-08-19T12:35:06;30.15;;;24.88;;
45534;SDS011;35892;48.798;9.698;2022-08-19T12:37:39;28.98;;;25.90;;
45534;SDS011;35892;48.798;9.698;2022-08-19T12:40:08;31.85;;;26.80;;
45534;SDS011;35892;48.798;9.698;2022-08-19T12:42:38;31.08;;;25.48;;
45534;SDS011;35892;48.798;9.698;2022-08-19T12:45:08;24.75;;;21.27;;
45534;SDS011;35892;48.798;9.698;2022-08-19T12:47:37;30.70;;;24.42;;
45534;SDS011;35892;48.798;9.698;2022-08-19T12:50:09;38.53;;;29.88;;
45534;SDS011;35892;48.798;9.698;2022-08-19T12:52:38;38.92;;;31.45;;
45534;SDS011;35892;48.798;9.698;2022-08-19T12:55:08;33.58;;;26.95;;
45534;SDS011;35892;48.798;9.698;2022-08-19T12:57:36;30.55;;;25.95;;
45534;SDS011;35892;48.798;9.698;2022-08-19T13:02:39;37.15;;;28.77;;
45534;SDS011;35892;48.798;9.698;2022-08-19T13:05:13;38.63;;;30.88;;
45534;SDS011;35892;48.798;9.698;2022-08-19T13:07:42;33.78;;;27.23;;
45534;SDS011;35892;48.798;9.698;2022-08-19T13:10:15;35.78;;;30.38;;
45534;SDS011;35892;48.798;9.698;2022-08-19T13:15:11;35.30;;;28.40;;
45534;SDS011;35892;48.798;9.698;2022-08-19T13:17:40;33.47;;;28.10;;
45534;SDS011;35892;48.798;9.698;2022-08-19T13:20:08;34.50;;;28.00;;
45534;SDS011;35892;48.798;9.698;2022-08-19T13:22:38;36.80;;;29.98;;
45534;SDS011;35892;48.798;9.698;2022-08-19T13:25:06;37.25;;;30.42;;
45534;SDS011;35892;48.798;9.698;2022-08-19T13:27:36;33.05;;;27.05;;
45534;SDS011;35892;48.798;9.698;2022-08-19T13:30:04;30.65;;;24.90;;
45534;SDS011;35892;48.798;9.698;2022-08-19T13:32:52;33.28;;;27.83;;
45534;SDS011;35892;48.798;9.698;2022-08-19T13:35:38;33.92;;;28.98;;
45534;SDS011;35892;48.798;9.698;2022-08-19T13:38:11;36.33;;;30.40;;
45534;SDS011;35892;48.798;9.698;2022-08-19T13:40:39;35.25;;;27.30;;
45534;SDS011;35892;48.798;9.698;2022-08-19T13:43:06;40.00;;;31.20;;
45534;SDS011;35892;48.798;9.698;2022-08-19T13:45:48;36.63;;;29.35;;
45534;SDS011;35892;48.798;9.698;2022-08-19T13:48:16;41.70;;;29.88;;
45534;SDS011;35892;48.798;9.698;2022-08-19T13:50:44;40.80;;;31.33;;
45534;SDS011;35892;48.798;9.698;2022-08-19T13:53:13;35.92;;;26.85;;
45534;SDS011;35892;48.798;9.698;2022-08-19T13:55:41;37.00;;;29.27;;
45534;SDS011;35892;48.798;9.698;2022-08-19T13:58:10;36.58;;;28.23;;
45534;SDS011;35892;48.798;9.698;2022-08-19T14:00:41;35.42;;;29.20;;
45534;SDS011;35892;48.798;9.698;2022-08-19T14:03:12;31.77;;;26.20;;
45534;SDS011;35892;48.798;9.698;2022-08-19T14:05:39;30.20;;;26.10;;
45534;SDS011;35892;48.798;9.698;2022-08-19T14:08:08;32.25;;;26.90;;
45534;SDS011;35892;48.798;9.698;2022-08-19T14:10:36;30.67;;;26.92;;
45534;SDS011;35892;48.798;9.698;2022-08-19T14:13:05;25.75;;;21.95;;
45534;SDS011;35892;48.798;9.698;2022-08-19T14:15:32;26.00;;;23.33;;
45534;SDS011;35892;48.798;9.698;2022-08-19T14:17:59;24.40;;;21.75;;
45534;SDS011;35892;48.798;9.698;2022-08-19T14:20:26;24.33;;;21.25;;
45534;SDS011;35892;48.798;9.698;2022-08-19T14:22:54;22.67;;;20.20;;
45534;SDS011;35892;48.798;9.698;2022-08-19T14:25:22;20.85;;;18.73;;
45534;SDS011;35892;48.798;9.698;2022-08-19T14:27:51;18.55;;;16.55;;
45534;SDS011;35892;48.798;9.698;2022-08-19T14:30:25;19.00;;;17.10;;
45534;SDS011;35892;48.798;9.698;2022-08-19T14:32:55;20.95;;;18.95;;
45534;SDS011;35892;48.798;9.698;2022-08-19T14:35:26;19.97;;;18.03;;
45534;SDS011;35892;48.798;9.698;2022-08-19T14:37:53;21.23;;;18.67;;
45534;SDS011;35892;48.798;9.698;2022-08-19T14:40:25;17.15;;;15.55;;
45534;SDS011;35892;48.798;9.698;2022-08-19T14:42:59;17.30;;;15.52;;
45534;SDS011;35892;48.798;9.698;2022-08-19T14:45:39;15.13;;;13.63;;
45534;SDS011;35892;48.798;9.698;2022-08-19T14:48:06;18.58;;;16.77;;
45534;SDS011;35892;48.798;9.698;2022-08-19T14:50:44;19.65;;;17.63;;
45534;SDS011;35892;48.798;9.698;2022-08-19T14:53:11;18.92;;;17.13;;
45534;SDS011;35892;48.798;9.698;2022-08-19T14:55:42;18.95;;;17.15;;
45534;SDS011;35892;48.798;9.698;2022-08-19T14:58:10;16.67;;;15.05;;
45534;SDS011;35892;48.798;9.698;2022-08-19T15:00:55;15.63;;;14.13;;
45534;SDS011;35892;48.798;9.698;2022-08-19T15:03:25;16.83;;;15.23;;
45534;SDS011;35892;48.798;9.698;2022-08-19T15:05:53;15.45;;;13.93;;
45534;SDS011;35892;48.798;9.698;2022-08-19T15:08:21;14.30;;;12.90;;
45534;SDS011;35892;48.798;9.698;2022-08-19T15:10:51;17.30;;;14.98;;
45534;SDS011;35892;48.798;9.698;2022-08-19T15:13:18;15.30;;;13.90;;